Time;durP1;ratioP1;P1;durP2;ratioP2;P2;SDS_P1;SDS_P2;PMS_P1;PMS_P2;Temp;Humidity;BMP_temperature;BMP_pressure;BME280_temperature;BME280_humidity;BME280_pressure;Samples;Min_cycle;Max_cycle;Signal;HPM_P1;HPM_P2
2023/12/30 00:01:34;;;;;;;;;5.33;1.33;;;;;10.56;89.36;101279.88;4977217;28;45422;-52
2023/12/30 00:03:59;;;;;;;;;2.33;1.67;;;;;10.55;88.89;101296.81;4977008;28;47298;-50
2023/12/30 00:06:25;;;;;;;;;3.00;1.33;;;;;10.52;89.37;101273.97;4976860;28;45286;-49
2023/12/30 00:08:50;;;;;;;;;5.00;2.67;;;;;10.50;89.24;101267.94;4976972;28;45589;-54
2023/12/30 00:11:15;;;;;;;;;3.00;2.00;;;;;10.49;89.22;101274.22;4977061;28;45331;-51
2023/12/30 00:13:41;;;;;;;;;2.67;2.67;;;;;10.51;89.31;101276.78;4975380;28;46980;-52
2023/12/30 00:16:06;;;;;;;;;6.00;2.00;;;;;10.51;89.27;101284.75;4976652;28;45407;-51
2023/12/30 00:18:31;;;;;;;;;2.00;2.00;;;;;10.38;89.19;101253.88;4976894;28;45277;-50
2023/12/30 00:20:57;;;;;;;;;7.67;3.33;;;;;10.48;89.33;101283.19;4977083;28;45283;-52
2023/12/30 00:23:23;;;;;;;;;2.00;2.00;;;;;10.46;89.63;101270.03;4976440;28;46068;-48
2023/12/30 00:25:48;;;;;;;;;4.00;2.00;;;;;10.43;89.18;101278.25;4976317;28;45476;-51
2023/12/30 00:28:13;;;;;;;;;7.67;7.00;;;;;10.44;89.41;101274.63;4976645;28;45588;-51
2023/12/30 00:30:39;;;;;;;;;5.33;3.00;;;;;10.43;89.25;101269.44;4976913;28;45308;-48
2023/12/30 00:33:05;;;;;;;;;5.33;2.00;;;;;10.42;89.37;101273.94;4976444;28;47298;-44
2023/12/30 00:35:30;;;;;;;;;4.00;4.00;;;;;10.36;89.31;101266.47;4976571;28;45188;-42
2023/12/30 00:37:55;;;;;;;;;2.67;2.67;;;;;10.37;89.18;101270.84;4976656;28;45402;-51
2023/12/30 00:40:21;;;;;;;;;4.00;2.33;;;;;10.39;88.86;101262.72;4976950;28;45373;-53
2023/12/30 00:42:47;;;;;;;;;8.00;3.00;;;;;10.37;89.13;101262.00;4976269;28;46004;-51
2023/12/30 00:45:12;;;;;;;;;2.00;2.00;;;;;10.37;89.15;101265.50;4978858;28;45264;-53
2023/12/30 00:47:37;;;;;;;;;3.00;3.00;;;;;10.36;89.30;101261.16;4980088;28;45361;-51
2023/12/30 00:50:03;;;;;;;;;7.00;5.33;;;;;10.34;89.32;101257.78;4979994;28;45473;-50
2023/12/30 00:52:29;;;;;;;;;6.00;2.67;;;;;10.31;89.73;101265.19;4979844;28;47270;-54
2023/12/30 00:54:54;;;;;;;;;1.67;1.00;;;;;10.33;89.70;101260.59;4979748;28;45870;-54
2023/12/30 00:57:20;;;;;;;;;2.00;2.00;;;;;10.31;89.58;101274.00;4979812;28;45541;-49
2023/12/30 00:59:45;;;;;;;;;2.00;2.00;;;;;10.29;89.41;101265.31;4979779;28;45453;-49
2023/12/30 01:02:10;;;;;;;;;4.67;2.00;;;;;10.28;89.81;101276.94;4979726;28;45450;-52
2023/12/30 01:04:35;;;;;;;;;9.33;3.00;;;;;10.28;89.79;101281.41;4979664;28;45321;-54
2023/12/30 01:07:01;;;;;;;;;6.00;3.00;;;;;10.26;89.73;101278.88;4979788;28;45349;-52
2023/12/30 01:09:26;;;;;;;;;3.00;3.00;;;;;10.23;90.08;101282.59;4979511;28;45434;-53
2023/12/30 01:11:52;;;;;;;;;8.00;3.00;;;;;10.21;90.19;101279.25;4979422;28;46488;-50
2023/12/30 01:14:17;;;;;;;;;3.33;2.00;;;;;10.21;90.13;101275.75;4979385;28;45478;-47
2023/12/30 01:16:42;;;;;;;;;7.00;3.00;;;;;10.15;90.02;101270.94;4979808;28;45368;-51
2023/12/30 01:19:07;;;;;;;;;3.00;3.00;;;;;10.18;89.70;101286.63;4979784;28;45467;-53
2023/12/30 01:21:33;;;;;;;;;7.00;3.33;;;;;10.17;90.01;101284.97;4979511;28;46302;-50
2023/12/30 01:23:58;;;;;;;;;6.00;4.33;;;;;10.15;89.76;101282.41;4979269;28;45323;-42
2023/12/30 01:26:24;;;;;;;;;2.67;2.67;;;;;10.11;89.74;101274.81;4979455;28;45886;-52
2023/12/30 01:28:49;;;;;;;;;3.00;2.00;;;;;10.11;89.68;101285.47;4979516;28;45398;-53
2023/12/30 01:31:17;;;;;;;;;1.67;1.67;;;;;10.10;89.91;101284.63;4979301;28;46274;-50
2023/12/30 01:33:42;;;;;;;;;4.67;3.00;;;;;10.10;89.75;101289.09;4979240;28;45380;-47
2023/12/30 01:36:08;;;;;;;;;3.33;2.00;;;;;10.06;89.35;101272.56;4979100;28;45856;-49
2023/12/30 01:38:33;;;;;;;;;7.00;2.67;;;;;10.03;89.80;101274.63;4979262;28;45405;-49
2023/12/30 01:40:59;;;;;;;;;9.33;2.67;;;;;10.04;89.62;101277.19;4979165;28;46763;-51
2023/12/30 01:43:26;;;;;;;;;10.33;4.33;;;;;10.03;89.81;101282.59;4978867;28;45489;-42
2023/12/30 01:45:53;;;;;;;;;4.33;3.67;;;;;9.97;89.96;101279.50;4979084;28;45471;-51
2023/12/30 01:48:20;;;;;;;;;2.33;2.33;;;;;9.99;89.69;101287.38;4979235;28;45480;-50
2023/12/30 01:50:48;;;;;;;;;2.67;2.00;;;;;9.99;89.87;101284.72;4978748;28;46013;-53
2023/12/30 01:53:16;;;;;;;;;2.00;2.00;;;;;9.99;89.63;101296.19;4978831;28;45383;-52
2023/12/30 01:55:42;;;;;;;;;5.67;3.00;;;;;9.98;89.75;101299.78;4978594;28;45456;-43
2023/12/30 01:58:07;;;;;;;;;2.00;2.00;;;;;9.98;89.71;101291.81;4978919;28;45442;-49
2023/12/30 02:00:34;;;;;;;;;5.00;1.33;;;;;9.95;89.62;101289.44;4978660;28;46302;-44
2023/12/30 02:03:00;;;;;;;;;5.00;1.67;;;;;9.98;89.22;101290.97;4978986;28;45374;-52
2023/12/30 02:05:27;;;;;;;;;5.33;2.00;;;;;9.97;89.20;101294.63;4978788;28;45378;-53
2023/12/30 02:07:52;;;;;;;;;5.67;2.00;;;;;9.96;89.31;101299.09;4978859;28;45297;-47
2023/12/30 02:10:17;;;;;;;;;2.33;2.00;;;;;9.95;89.12;101305.38;4978224;28;46173;-51
2023/12/30 02:12:43;;;;;;;;;3.67;1.00;;;;;9.96;89.14;101309.72;4979075;28;46065;-53
2023/12/30 02:15:13;;;;;;;;;3.67;1.00;;;;;9.96;89.06;101317.69;4978742;28;45276;-52
2023/12/30 02:17:38;;;;;;;;;1.67;1.67;;;;;9.94;88.93;101321.44;4978662;28;45424;-53
2023/12/30 02:20:04;;;;;;;;;3.33;2.00;;;;;9.93;88.87;101331.22;4978283;28;46141;-50
2023/12/30 02:22:30;;;;;;;;;7.00;3.00;;;;;9.82;88.56;101312.69;4978568;28;45258;-53
2023/12/30 02:24:59;;;;;;;;;3.00;1.00;;;;;9.87;89.19;101321.13;4978164;28;45429;-52
2023/12/30 02:27:25;;;;;;;;;3.00;3.00;;;;;9.87;89.03;101333.56;4978816;28;45774;-53
2023/12/30 02:29:50;;;;;;;;;6.00;2.00;;;;;9.89;88.81;101337.78;4978008;28;47275;-54
2023/12/30 02:32:16;;;;;;;;;5.00;2.00;;;;;9.87;89.24;101338.88;4978312;28;45302;-48
2023/12/30 02:34:41;;;;;;;;;2.33;2.00;;;;;9.85;89.38;101338.16;4978450;28;45362;-50
2023/12/30 02:37:06;;;;;;;;;2.33;1.67;;;;;9.84;89.39;101341.78;4978422;28;45443;-54
2023/12/30 02:39:31;;;;;;;;;6.67;2.67;;;;;9.84;89.53;101339.13;4978017;28;46296;-49
2023/12/30 02:41:57;;;;;;;;;1.00;1.00;;;;;9.79;89.48;101334.19;4978323;28;45351;-53
2023/12/30 02:44:23;;;;;;;;;4.33;2.00;;;;;9.82;89.44;101331.31;4978379;28;45403;-41
2023/12/30 02:46:48;;;;;;;;;6.67;2.67;;;;;9.78;89.55;101327.22;4978581;28;45774;-54
2023/12/30 02:49:13;;;;;;;;;5.00;3.00;;;;;9.78;89.60;101326.38;4976773;28;46959;-52
2023/12/30 02:51:38;;;;;;;;;2.67;2.67;;;;;9.78;89.87;101334.34;4978036;28;45494;-50
2023/12/30 02:54:04;;;;;;;;;6.33;1.33;;;;;9.78;89.72;101337.84;4977850;28;48832;-51
2023/12/30 02:56:29;;;;;;;;;2.00;2.00;;;;;9.76;89.78;101334.44;4978460;28;45895;-53
2023/12/30 02:58:56;;;;;;;;;6.00;3.00;;;;;9.74;89.92;101323.13;4977956;28;46117;-53
2023/12/30 03:01:27;;;;;;;;;2.67;2.00;;;;;9.68;89.93;101327.09;4978026;28;45328;-53
2023/12/30 03:03:54;;;;;;;;;5.33;1.67;;;;;9.72;89.90;101322.38;4977927;28;45356;-52
2023/12/30 03:06:21;;;;;;;;;4.00;2.67;;;;;9.70;90.21;101327.84;4976946;28;45365;-53
2023/12/30 03:08:46;;;;;;;;;3.67;2.00;;;;;9.69;90.37;101323.50;4977304;28;47264;-50
2023/12/30 03:11:12;;;;;;;;;2.33;1.67;;;;;9.69;90.52;101323.50;4977715;28;45490;-53
2023/12/30 03:13:37;;;;;;;;;6.33;3.00;;;;;9.66;90.63;101326.41;4977882;28;45738;-47
2023/12/30 03:16:04;;;;;;;;;3.33;2.00;;;;;9.64;90.64;101315.03;4978082;28;45442;-54
2023/12/30 03:18:30;;;;;;;;;6.33;2.33;;;;;9.68;90.21;101316.47;4977730;28;45375;-52
2023/12/30 03:20:55;;;;;;;;;6.67;3.00;;;;;9.66;90.86;101325.56;4977471;28;45434;-52
2023/12/30 03:23:20;;;;;;;;;2.33;2.00;;;;;9.66;90.69;101331.72;4977622;28;46061;-52
2023/12/30 03:25:45;;;;;;;;;4.00;2.00;;;;;9.64;91.11;101332.81;4977696;28;45467;-47
2023/12/30 03:28:11;;;;;;;;;6.00;2.33;;;;;9.64;91.00;101336.28;4977256;28;47338;-52
2023/12/30 03:30:36;;;;;;;;;2.00;2.00;;;;;9.63;90.86;101333.78;4977456;28;45470;-48
2023/12/30 03:33:02;;;;;;;;;2.33;2.00;;;;;9.64;90.96;101341.59;4977761;28;45402;-49
2023/12/30 03:35:27;;;;;;;;;6.67;2.33;;;;;9.61;91.01;101344.53;4977580;28;45366;-50
2023/12/30 03:37:52;;;;;;;;;2.67;2.00;;;;;9.63;91.30;101334.63;4977127;28;46110;-51
2023/12/30 03:40:18;;;;;;;;;3.00;1.00;;;;;9.63;91.77;101342.59;4977248;28;45421;-45
2023/12/30 03:42:43;;;;;;;;;1.00;1.00;;;;;9.63;91.35;101344.41;4977537;28;45470;-54
2023/12/30 03:45:09;;;;;;;;;6.33;2.67;;;;;9.64;91.32;101346.09;4977876;28;45398;-53
2023/12/30 03:47:34;;;;;;;;;4.33;3.67;;;;;9.63;91.85;101344.41;4976906;28;46143;-50
2023/12/30 03:49:59;;;;;;;;;5.67;1.67;;;;;9.62;91.15;101348.03;4977063;28;45244;-51
2023/12/30 03:52:25;;;;;;;;;2.00;2.00;;;;;9.49;91.59;101325.13;4977267;28;45419;-51
2023/12/30 03:54:51;;;;;;;;;2.00;2.00;;;;;9.60;91.43;101340.16;4977082;28;45355;-51
2023/12/30 03:57:16;;;;;;;;;4.33;1.00;;;;;9.59;91.65;101335.84;4977074;28;46225;-54
2023/12/30 03:59:42;;;;;;;;;6.67;2.67;;;;;9.59;91.14;101341.16;4976578;28;45380;-52
2023/12/30 04:02:07;;;;;;;;;5.33;3.00;;;;;9.56;92.05;101337.91;4977127;28;45229;-52
2023/12/30 04:04:33;;;;;;;;;6.67;2.67;;;;;9.56;91.72;101335.25;4977487;28;45332;-50
2023/12/30 04:07:00;;;;;;;;;5.67;3.00;;;;;9.55;91.31;101341.53;4976729;28;45407;-51
2023/12/30 04:09:26;;;;;;;;;2.33;1.33;;;;;9.49;91.53;101325.13;4976727;28;45486;-48
2023/12/30 04:11:51;;;;;;;;;10.33;5.00;;;;;9.51;91.69;101332.97;4977005;28;45336;-53
2023/12/30 04:14:16;;;;;;;;;3.67;2.33;;;;;9.48;91.63;101334.06;4977258;28;45402;-52
2023/12/30 04:16:42;;;;;;;;;5.67;3.00;;;;;9.48;91.24;101333.22;4976923;28;45446;-51
2023/12/30 04:19:07;;;;;;;;;5.33;2.67;;;;;9.45;91.69;101328.16;4976737;28;45458;-48
2023/12/30 04:21:32;;;;;;;;;4.67;2.67;;;;;9.44;91.34;101329.16;4977003;28;45367;-49
2023/12/30 04:23:57;;;;;;;;;5.00;3.00;;;;;9.41;91.38;101318.75;4976768;28;45407;-50
2023/12/30 04:26:23;;;;;;;;;4.00;3.00;;;;;9.43;91.96;101322.13;4976678;28;46123;-53
2023/12/30 04:28:48;;;;;;;;;9.00;4.00;;;;;9.40;91.69;101320.59;4976422;28;48095;-52
2023/12/30 04:31:14;;;;;;;;;5.00;5.00;;;;;9.37;91.22;101318.16;4976875;28;45304;-53
2023/12/30 04:33:39;;;;;;;;;5.67;3.67;;;;;9.34;91.42;101318.41;4976855;28;45399;-52
2023/12/30 04:36:04;;;;;;;;;6.00;2.67;;;;;9.33;91.26;101315.88;4975019;28;50188;-51
2023/12/30 04:38:30;;;;;;;;;5.67;1.33;;;;;9.36;91.81;101326.25;4976610;28;45315;-46
2023/12/30 04:40:56;;;;;;;;;2.33;2.33;;;;;9.36;91.33;101323.63;4976737;28;45400;-51
2023/12/30 04:43:21;;;;;;;;;6.33;5.00;;;;;9.31;91.11;101328.44;4976860;28;46003;-50
2023/12/30 04:45:47;;;;;;;;;12.33;3.67;;;;;9.34;91.91;101333.50;4976305;28;47622;-53
2023/12/30 04:48:12;;;;;;;;;5.00;2.00;;;;;9.32;91.59;101327.47;4976532;28;45368;-50
2023/12/30 04:50:37;;;;;;;;;6.00;2.00;;;;;9.28;91.79;101332.19;4976912;28;45181;-54
2023/12/30 04:53:03;;;;;;;;;5.33;3.00;;;;;9.27;91.76;101326.97;4975536;28;45306;-49
2023/12/30 04:55:28;;;;;;;;;6.00;3.00;;;;;9.28;91.55;101337.50;4976182;28;45842;-48
2023/12/30 04:57:54;;;;;;;;;7.00;5.33;;;;;9.22;91.88;101325.53;4976463;28;45292;-45
2023/12/30 05:00:19;;;;;;;;;5.00;2.00;;;;;9.25;91.77;101329.78;4976563;28;45552;-46
2023/12/30 05:02:45;;;;;;;;;4.00;3.67;;;;;9.24;91.67;101334.25;4976703;28;45281;-44
2023/12/30 05:05:10;;;;;;;;;6.33;3.00;;;;;9.25;91.68;101335.09;4976280;28;46145;-53
2023/12/30 05:07:36;;;;;;;;;5.00;2.33;;;;;9.23;91.58;101334.38;4976230;28;45395;-53
2023/12/30 05:10:01;;;;;;;;;3.00;3.00;;;;;9.20;92.25;101326.66;4976184;28;45505;-50
2023/12/30 05:12:26;;;;;;;;;5.67;1.67;;;;;9.22;92.01;101333.50;4975314;28;45435;-46
2023/12/30 05:14:52;;;;;;;;;4.33;3.67;;;;;9.22;92.00;101330.00;4976190;28;45352;-48
2023/12/30 05:17:17;;;;;;;;;6.00;3.67;;;;;9.21;91.91;101333.63;4975927;28;45361;-43
2023/12/30 05:19:42;;;;;;;;;5.67;4.33;;;;;9.19;92.14;101325.81;4976223;28;45344;-45
2023/12/30 05:22:08;;;;;;;;;4.33;3.67;;;;;9.19;91.59;101323.16;4976202;28;45487;-46
2023/12/30 05:24:33;;;;;;;;;5.00;2.00;;;;;9.25;91.79;101317.34;4976105;28;46217;-50
2023/12/30 05:26:58;;;;;;;;;14.00;6.00;;;;;9.24;91.82;101315.66;4976105;28;45462;-43
2023/12/30 05:29:24;;;;;;;;;15.00;5.00;;;;;9.05;91.91;101282.75;4976068;28;45401;-48
2023/12/30 05:31:49;;;;;;;;;2.67;1.00;;;;;9.25;92.02;101308.53;4979463;28;45366;-50
2023/12/30 05:34:15;;;;;;;;;11.00;5.00;;;;;9.28;91.77;101310.94;4979002;28;45322;-47
2023/12/30 05:36:40;;;;;;;;;10.33;5.00;;;;;9.32;92.24;101311.56;4978985;28;45407;-47
2023/12/30 05:39:05;;;;;;;;;6.67;5.00;;;;;9.33;91.88;101305.25;4979551;28;45540;-53
2023/12/30 05:41:31;;;;;;;;;11.00;5.67;;;;;9.32;91.74;101306.25;4979667;28;45441;-54
2023/12/30 05:43:56;;;;;;;;;6.33;3.00;;;;;9.34;91.55;101307.78;4980256;28;45351;-52
2023/12/30 05:46:21;;;;;;;;;9.67;6.00;;;;;9.32;91.51;101308.91;4979118;28;49071;-50
2023/12/30 05:48:47;;;;;;;;;3.00;3.00;;;;;9.19;91.44;101288.66;4979736;28;45388;-53
2023/12/30 05:51:12;;;;;;;;;5.67;2.00;;;;;9.30;91.69;101305.50;4979386;28;45884;-54
2023/12/30 05:53:40;;;;;;;;;6.00;3.00;;;;;9.24;91.90;101302.38;4978962;28;45406;-53
2023/12/30 05:56:05;;;;;;;;;7.33;2.67;;;;;9.19;92.38;101296.63;4978998;28;45423;-53
2023/12/30 05:58:31;;;;;;;;;9.67;5.67;;;;;9.18;92.13;101302.03;4978201;28;45355;-51
2023/12/30 06:00:57;;;;;;;;;2.00;2.00;;;;;9.17;92.26;101303.84;4979012;28;45431;-50
2023/12/30 06:03:22;;;;;;;;;5.67;2.67;;;;;9.15;92.88;101291.69;4978656;28;46082;-54
2023/12/30 06:05:47;;;;;;;;;6.67;5.00;;;;;9.13;92.51;101298.91;4978684;28;45426;-50
2023/12/30 06:08:13;;;;;;;;;6.00;3.67;;;;;9.12;92.28;101303.38;4979217;28;45430;-49
2023/12/30 06:10:38;;;;;;;;;5.00;2.33;;;;;9.09;92.37;101300.13;4978573;28;45442;-55
2023/12/30 06:13:03;;;;;;;;;2.33;2.00;;;;;9.06;92.65;101298.56;4978510;28;51153;-53
2023/12/30 06:15:29;;;;;;;;;6.67;4.33;;;;;9.06;93.05;101301.22;4978785;28;45483;-47
2023/12/30 06:17:54;;;;;;;;;8.67;3.67;;;;;9.03;93.37;101295.31;4978765;28;45259;-54
2023/12/30 06:20:21;;;;;;;;;5.00;2.67;;;;;9.08;92.74;101304.59;4978886;28;45369;-51
2023/12/30 06:22:46;;;;;;;;;2.00;2.00;;;;;9.08;92.90;101306.41;4978407;28;46066;-43
2023/12/30 06:25:11;;;;;;;;;2.00;2.00;;;;;9.07;92.52;101307.38;4976806;28;46285;-49
2023/12/30 06:27:37;;;;;;;;;12.67;6.67;;;;;9.09;93.23;101308.09;4978596;28;45370;-54
2023/12/30 06:30:03;;;;;;;;;6.33;5.00;;;;;9.10;93.17;101318.59;4978665;28;45427;-46
2023/12/30 06:32:29;;;;;;;;;6.00;3.00;;;;;9.07;92.79;101315.34;4978202;28;45297;-46
2023/12/30 06:34:54;;;;;;;;;2.00;2.00;;;;;9.11;92.95;101314.13;4978296;28;45683;-52
2023/12/30 06:37:19;;;;;;;;;3.00;2.00;;;;;9.11;92.97;101322.94;4978157;28;45323;-41
2023/12/30 06:39:45;;;;;;;;;4.00;3.00;;;;;9.12;93.14;101319.31;4978575;28;45405;-48
2023/12/30 06:42:10;;;;;;;;;5.33;3.00;;;;;9.14;93.22;101320.03;4975420;28;46160;-54
2023/12/30 06:44:35;;;;;;;;;10.33;5.00;;;;;9.16;93.14;101326.06;4978264;28;45678;-53
2023/12/30 06:47:01;;;;;;;;;5.00;2.00;;;;;9.16;92.79;101325.22;4978435;28;45433;-44
2023/12/30 06:49:26;;;;;;;;;2.00;2.00;;;;;9.16;92.95;101326.06;4978401;28;45469;-44
2023/12/30 06:51:51;;;;;;;;;5.00;2.67;;;;;9.12;93.17;101313.16;4978128;28;46193;-49
2023/12/30 06:54:17;;;;;;;;;5.33;1.67;;;;;9.19;92.80;101320.50;4978005;28;46179;-50
2023/12/30 06:56:44;;;;;;;;;4.67;3.00;;;;;9.19;92.87;101324.97;4977955;28;45398;-54
2023/12/30 06:59:09;;;;;;;;;7.67;3.00;;;;;9.20;92.97;101324.84;4978238;28;45382;-51
2023/12/30 07:01:39;;;;;;;;;5.00;2.00;;;;;9.18;93.00;101329.41;4977622;28;46036;-44
2023/12/30 07:04:04;;;;;;;;;2.33;2.00;;;;;9.17;92.65;101313.63;4977938;28;45327;-49
2023/12/30 07:06:30;;;;;;;;;2.67;2.00;;;;;9.18;92.96;101324.09;4978434;28;45906;-48
2023/12/30 07:08:55;;;;;;;;;2.00;2.00;;;;;9.16;93.08;101315.44;4978283;28;45580;-47
2023/12/30 07:11:20;;;;;;;;;5.00;3.00;;;;;9.19;92.93;101322.31;4977169;28;52311;-53
2023/12/30 07:13:46;;;;;;;;;11.00;3.00;;;;;9.19;93.70;101319.66;4977534;28;45379;-41
2023/12/30 07:16:14;;;;;;;;;3.67;2.00;;;;;9.17;92.99;101317.13;4977855;28;45429;-50
2023/12/30 07:18:40;;;;;;;;;7.00;2.00;;;;;9.20;93.48;101322.19;4978029;28;45473;-49
2023/12/30 07:21:05;;;;;;;;;3.67;3.67;;;;;9.20;93.29;101314.22;4977561;28;47275;-42
2023/12/30 07:23:31;;;;;;;;;4.33;2.33;;;;;9.18;93.19;101321.44;4977666;28;45356;-43
2023/12/30 07:25:56;;;;;;;;;5.00;5.00;;;;;9.19;93.15;101322.31;4977568;28;45906;-43
2023/12/30 07:28:21;;;;;;;;;2.33;2.33;;;;;9.16;93.44;101314.59;4977880;28;45303;-41
2023/12/30 07:30:47;;;;;;;;;3.00;3.00;;;;;9.22;92.90;101328.19;4977475;28;46306;-51
2023/12/30 07:33:12;;;;;;;;;8.00;3.00;;;;;9.23;93.60;101319.28;4977499;28;45283;-50
2023/12/30 07:35:38;;;;;;;;;3.33;2.67;;;;;9.24;92.80;101318.31;4977588;28;45416;-43
2023/12/30 07:38:04;;;;;;;;;4.33;3.00;;;;;9.19;92.95;101309.88;4977779;28;45403;-51
2023/12/30 07:40:29;;;;;;;;;7.00;3.00;;;;;9.21;92.79;101321.22;4977348;28;46195;-47
2023/12/30 07:42:54;;;;;;;;;6.33;2.00;;;;;9.22;92.95;101314.09;4977213;28;45264;-52
2023/12/30 07:45:20;;;;;;;;;3.00;3.00;;;;;9.19;93.12;101323.16;4977301;28;45361;-53
2023/12/30 07:47:45;;;;;;;;;8.00;3.00;;;;;9.18;93.13;101305.53;4977305;28;45392;-51
2023/12/30 07:50:10;;;;;;;;;2.33;2.00;;;;;9.19;92.92;101309.88;4976890;28;45295;-44
2023/12/30 07:52:36;;;;;;;;;3.00;2.00;;;;;9.21;92.33;101301.78;4976808;28;45351;-48
2023/12/30 07:55:01;;;;;;;;;2.00;2.00;;;;;9.22;91.70;101304.31;4977231;28;45728;-51
2023/12/30 07:57:27;;;;;;;;;2.67;2.67;;;;;9.23;90.82;101311.31;4977131;28;45426;-49
2023/12/30 07:59:52;;;;;;;;;3.67;2.00;;;;;9.27;91.16;101301.31;4977093;28;46109;-49
2023/12/30 08:02:18;;;;;;;;;3.00;1.00;;;;;9.28;90.69;101299.50;4976787;28;45456;-50
2023/12/30 08:04:43;;;;;;;;;1.67;1.67;;;;;9.34;90.72;101309.59;4977044;28;45281;-48
2023/12/30 08:07:09;;;;;;;;;7.67;3.00;;;;;9.38;90.06;101319.00;4977044;28;45328;-53
2023/12/30 08:09:36;;;;;;;;;6.33;2.33;;;;;9.45;89.89;101306.91;4976966;28;47108;-51
2023/12/30 08:12:02;;;;;;;;;7.00;2.67;;;;;9.52;89.86;101310.75;4976905;28;45390;-52
2023/12/30 08:14:27;;;;;;;;;5.67;2.00;;;;;9.57;89.49;101310.38;4976746;28;45399;-46
2023/12/30 08:16:52;;;;;;;;;5.00;1.00;;;;;9.62;89.46;101308.19;4977008;28;45362;-52
2023/12/30 08:19:18;;;;;;;;;1.00;1.00;;;;;9.58;89.64;101299.63;4976412;28;45990;-44
2023/12/30 08:21:44;;;;;;;;;2.00;2.00;;;;;9.70;89.62;101309.25;4976737;28;45342;-46
2023/12/30 08:24:10;;;;;;;;;5.00;3.00;;;;;9.80;89.48;101316.44;4976782;28;45456;-48
2023/12/30 08:26:35;;;;;;;;;1.33;1.33;;;;;9.91;89.38;101309.28;4976507;28;45434;-46
2023/12/30 08:29:01;;;;;;;;;4.00;1.00;;;;;9.99;89.00;101306.81;4976404;28;45309;-54
2023/12/30 08:31:26;;;;;;;;;6.00;3.00;;;;;10.05;88.82;101308.09;4976767;28;45376;-45
2023/12/30 08:33:51;;;;;;;;;4.33;2.67;;;;;10.13;88.99;101308.28;4976882;28;45169;-49
2023/12/30 08:36:17;;;;;;;;;5.00;5.00;;;;;10.06;88.85;101291.16;4975408;28;45660;-43
2023/12/30 08:38:43;;;;;;;;;5.00;3.00;;;;;10.20;89.06;101295.34;4976401;28;46605;-49
2023/12/30 08:41:14;;;;;;;;;2.33;2.33;;;;;10.23;89.05;101293.22;4976334;28;45328;-42
2023/12/30 08:43:41;;;;;;;;;4.67;2.33;;;;;10.28;88.56;101287.59;4976587;28;45304;-41
2023/12/30 08:46:07;;;;;;;;;7.67;3.67;;;;;10.24;89.01;101276.38;4976601;28;45349;-53
2023/12/30 08:48:32;;;;;;;;;6.00;3.00;;;;;10.32;89.37;101282.81;4976376;28;47396;-45
2023/12/30 08:50:58;;;;;;;;;3.00;3.00;;;;;10.36;89.17;101279.75;4976407;28;45382;-44
2023/12/30 08:53:24;;;;;;;;;4.67;4.67;;;;;10.36;88.94;101257.66;4976415;28;45466;-45
2023/12/30 08:55:55;;;;;;;;;5.33;3.00;;;;;10.48;89.16;101265.41;4976651;28;45366;-42
2023/12/30 08:58:21;;;;;;;;;5.00;3.00;;;;;10.58;88.66;101260.16;4975931;28;46184;-43
2023/12/30 09:00:48;;;;;;;;;5.33;5.00;;;;;10.62;88.48;101264.22;4976110;28;45366;-42
2023/12/30 09:03:13;;;;;;;;;3.00;3.00;;;;;10.68;88.10;101260.16;4976342;28;45366;-43
2023/12/30 09:05:38;;;;;;;;;6.00;2.67;;;;;10.74;88.32;101263.16;4977989;28;45401;-44
2023/12/30 09:08:04;;;;;;;;;6.33;3.33;;;;;10.81;87.68;101257.28;4979732;28;45474;-44
2023/12/30 09:10:31;;;;;;;;;6.00;6.00;;;;;10.68;87.65;101242.38;4979444;28;45291;-43
2023/12/30 09:12:56;;;;;;;;;3.00;2.67;;;;;10.85;87.82;101256.03;4979697;28;45311;-45
2023/12/30 09:15:22;;;;;;;;;5.00;3.33;;;;;10.89;87.44;101255.63;4979737;28;45363;-53
2023/12/30 09:17:47;;;;;;;;;12.00;6.33;;;;;10.95;87.70;101259.53;4979418;28;49360;-56
2023/12/30 09:20:12;;;;;;;;;8.67;7.00;;;;;11.13;87.00;101254.41;4979615;28;45312;-55
2023/12/30 09:22:38;;;;;;;;;11.00;6.00;;;;;11.26;86.55;101252.31;4979589;28;45347;-55
2023/12/30 09:25:03;;;;;;;;;5.00;3.00;;;;;11.36;85.80;101258.50;4979871;28;45387;-54
2023/12/30 09:27:29;;;;;;;;;6.00;3.00;;;;;11.51;85.79;101250.94;4979082;28;47228;-50
2023/12/30 09:29:54;;;;;;;;;7.00;6.00;;;;;11.65;85.03;101258.50;4979413;28;45292;-55
2023/12/30 09:32:19;;;;;;;;;9.33;6.00;;;;;11.90;84.49;101253.59;4979196;28;45303;-58
2023/12/30 09:34:44;;;;;;;;;7.33;3.67;;;;;12.07;83.54;101252.84;4979346;28;45257;-50
2023/12/30 09:37:10;;;;;;;;;6.00;4.00;;;;;12.23;82.13;101254.94;4978724;28;52230;-58
2023/12/30 09:39:36;;;;;;;;;8.00;6.00;;;;;12.54;81.86;101258.19;4979034;28;45462;-49
2023/12/30 09:42:04;;;;;;;;;8.33;5.33;;;;;12.84;80.30;101258.88;4979247;28;45534;-57
2023/12/30 09:44:32;;;;;;;;;7.33;4.00;;;;;12.89;79.42;101253.94;4979139;28;45315;-54
2023/12/30 09:47:01;;;;;;;;;12.00;6.67;;;;;13.27;78.99;101252.03;4978628;28;47396;-58
2023/12/30 09:49:34;;;;;;;;;6.67;6.00;;;;;13.35;76.76;101249.44;4978666;28;45337;-56
2023/12/30 09:52:02;;;;;;;;;9.00;6.67;;;;;13.19;77.28;101252.78;4979110;28;45356;-56
2023/12/30 09:54:28;;;;;;;;;9.00;5.33;;;;;13.26;77.58;101253.03;4978979;28;45575;-45
2023/12/30 09:56:54;;;;;;;;;5.67;4.67;;;;;13.09;77.27;101252.81;4978672;28;46942;-42
2023/12/30 09:59:19;;;;;;;;;7.00;7.00;;;;;13.30;77.65;101249.06;4978682;28;45840;-44
2023/12/30 10:01:45;;;;;;;;;5.67;4.67;;;;;13.46;76.62;101257.25;4978868;28;45424;-50
2023/12/30 10:04:10;;;;;;;;;8.00;4.00;;;;;13.26;76.81;101250.34;4979089;28;45312;-43
2023/12/30 10:06:38;;;;;;;;;8.33;6.33;;;;;13.02;77.21;101249.09;4978650;28;47270;-59
2023/12/30 10:09:04;;;;;;;;;9.00;6.67;;;;;13.01;77.81;101249.22;4978583;28;45431;-59
2023/12/30 10:11:29;;;;;;;;;7.00;4.67;;;;;13.21;76.52;101242.78;4978465;28;45386;-59
2023/12/30 10:13:55;;;;;;;;;9.33;4.67;;;;;13.04;76.58;101247.09;4977325;28;45397;-59
2023/12/30 10:16:20;;;;;;;;;7.00;4.00;;;;;12.76;77.37;101250.78;4978341;28;46134;-57
2023/12/30 10:18:45;;;;;;;;;3.00;3.00;;;;;12.53;78.92;101245.84;4978443;28;45411;-58
2023/12/30 10:21:10;;;;;;;;;5.33;4.00;;;;;12.37;79.34;101243.78;4978691;28;45360;-59
2023/12/30 10:23:37;;;;;;;;;7.33;4.00;;;;;12.29;80.52;101237.50;4978584;28;45972;-54
2023/12/30 10:26:03;;;;;;;;;4.00;4.00;;;;;12.17;80.13;101227.00;4978291;28;45600;-57
2023/12/30 10:28:29;;;;;;;;;4.00;3.00;;;;;12.05;80.88;101237.97;4977994;28;45421;-59
2023/12/30 10:31:02;;;;;;;;;6.67;4.67;;;;;11.91;81.84;101240.09;4978100;28;45922;-57
2023/12/30 10:33:28;;;;;;;;;4.00;3.00;;;;;11.85;82.49;101234.53;4978295;28;45479;-56
2023/12/30 10:35:55;;;;;;;;;6.67;6.00;;;;;11.75;82.98;101226.50;4977713;28;45853;-51
2023/12/30 10:38:22;;;;;;;;;7.00;5.33;;;;;11.82;83.41;101232.09;4977960;28;45451;-59
2023/12/30 10:40:47;;;;;;;;;7.00;6.00;;;;;11.78;83.19;101217.38;4977989;28;45380;-49
2023/12/30 10:43:13;;;;;;;;;7.67;7.00;;;;;11.78;83.78;101215.56;4978043;28;45216;-44
2023/12/30 10:45:39;;;;;;;;;11.67;7.67;;;;;11.78;83.85;101212.06;4978472;28;46032;-45
2023/12/30 10:48:06;;;;;;;;;8.00;6.67;;;;;11.87;83.89;101211.22;4977995;28;45838;-45
2023/12/30 10:50:32;;;;;;;;;10.00;6.00;;;;;12.31;83.12;101203.53;4977814;28;45379;-58
2023/12/30 10:53:10;;;;;;;;;9.00;7.33;;;;;12.42;82.06;101193.47;4977996;28;45394;-58
2023/12/30 10:55:39;;;;;;;;;10.33;5.33;;;;;12.36;82.34;101187.91;4977758;28;47054;-58
2023/12/30 10:58:19;;;;;;;;;6.00;6.00;;;;;12.24;82.37;101187.25;4977591;28;45241;-56
2023/12/30 11:00:51;;;;;;;;;13.00;6.33;;;;;12.06;82.90;101181.00;4977783;28;45449;-58
2023/12/30 11:03:17;;;;;;;;;8.00;6.00;;;;;11.91;83.67;101185.97;4977972;28;45526;-54
2023/12/30 11:06:01;;;;;;;;;9.00;6.00;;;;;11.87;84.55;101174.72;4977409;28;45435;-58
2023/12/30 11:08:27;;;;;;;;;7.00;4.00;;;;;11.95;84.25;101168.69;4977523;28;45358;-58
2023/12/30 11:10:53;;;;;;;;;7.00;4.67;;;;;11.87;84.33;101165.91;4977488;28;45390;-52
2023/12/30 11:13:19;;;;;;;;;7.67;7.00;;;;;11.87;84.58;101165.91;4977664;28;45547;-45
2023/12/30 11:15:45;;;;;;;;;5.33;3.00;;;;;11.84;85.09;101159.06;4977440;28;45512;-44
2023/12/30 11:18:12;;;;;;;;;5.33;4.67;;;;;11.82;85.22;101158.31;4977516;28;45418;-58
2023/12/30 11:20:44;;;;;;;;;4.33;3.67;;;;;11.68;85.61;101151.63;4977570;28;45423;-58
2023/12/30 11:23:10;;;;;;;;;8.33;4.67;;;;;11.66;86.25;101152.72;4977588;28;45427;-44